createdAt,value
2023-01-11T00:03:59.230Z,12.87
2023-01-11T00:08:00.222Z,13.33
2023-01-11T00:12:01.722Z,16.33
2023-01-11T00:16:05.354Z,13.83
2023-01-11T00:20:07.815Z,13.97
2023-01-11T00:24:08.819Z,14.07
2023-01-11T00:28:10.005Z,14.10
2023-01-11T00:32:10.952Z,12.53
2023-01-11T00:36:12.377Z,14.03
2023-01-11T00:40:13.678Z,15.77
2023-01-11T00:44:33.228Z,13.77
2023-01-11T00:48:34.217Z,11.70
2023-01-11T00:52:35.198Z,11.80
2023-01-11T00:56:36.482Z,9.40
2023-01-11T01:00:38.185Z,11.70
2023-01-11T01:04:39.547Z,10.07
2023-01-11T01:08:40.528Z,11.60
2023-01-11T01:13:00.116Z,11.00
2023-01-11T01:17:06.511Z,9.93
2023-01-11T01:21:07.508Z,9.50
2023-01-11T01:29:17.824Z,8.07
2023-01-11T01:33:18.939Z,7.83
2023-01-11T01:37:19.981Z,7.60
2023-01-11T01:41:20.921Z,9.60
2023-01-11T01:45:27.884Z,9.57
2023-01-11T01:49:28.903Z,10.03
2023-01-11T01:53:36.774Z,9.90
2023-01-11T01:57:40.554Z,11.55
2023-01-11T02:01:47.519Z,10.60
2023-01-11T02:05:51.222Z,9.90
2023-01-11T02:10:02.226Z,8.53
2023-01-11T02:14:06.812Z,9.47
2023-01-11T02:18:13.635Z,9.47
2023-01-11T02:22:18.526Z,10.30
2023-01-11T02:26:41.468Z,10.70
2023-01-11T02:31:07.528Z,10.37
2023-01-11T02:35:18.105Z,10.90
2023-01-11T02:39:22.911Z,10.73
2023-01-11T02:43:49.385Z,10.10
2023-01-11T02:47:57.122Z,7.20
2023-01-11T02:52:04.703Z,8.43
2023-01-11T02:56:09.522Z,8.70
2023-01-11T03:00:11.892Z,7.10
2023-01-11T03:04:24.607Z,9.20
2023-01-11T03:08:44.076Z,8.83
2023-01-11T03:12:51.558Z,7.57
2023-01-11T03:17:20.638Z,8.83
2023-01-11T03:21:46.062Z,7.40
2023-01-11T03:26:05.895Z,8.13
2023-01-11T03:30:10.896Z,6.30
2023-01-11T03:34:18.416Z,6.20
2023-01-11T03:38:23.201Z,6.53
2023-01-11T03:42:26.836Z,6.60
2023-01-11T03:46:40.534Z,7.60
2023-01-11T03:50:44.145Z,7.20
2023-01-11T03:54:45.321Z,6.97
2023-01-11T03:58:46.599Z,6.73
2023-01-11T04:02:48.528Z,6.70
2023-01-11T04:06:49.640Z,6.33
2023-01-11T04:10:50.927Z,6.33
2023-01-11T04:14:52.086Z,5.90
2023-01-11T04:18:53.206Z,5.47
2023-01-11T04:22:54.159Z,5.13
2023-01-11T04:26:55.138Z,5.00
2023-01-11T04:30:56.112Z,4.77
2023-01-11T04:34:57.113Z,6.77
2023-01-11T04:38:58.189Z,3.03
2023-01-11T04:43:01.053Z,2.00
2023-01-11T04:47:02.123Z,2.30
2023-01-11T04:51:03.417Z,2.20
2023-01-11T04:55:04.892Z,2.27
2023-01-11T04:59:05.832Z,2.90
2023-01-11T05:03:06.899Z,2.77
2023-01-11T05:07:08.463Z,2.80
2023-01-11T05:11:09.661Z,2.90
2023-01-11T05:15:10.907Z,2.40
2023-01-11T05:19:11.873Z,3.10
2023-01-11T05:23:12.850Z,2.33
2023-01-11T05:27:13.808Z,2.37
2023-01-11T05:31:15.485Z,2.83
2023-01-11T05:35:16.497Z,2.83
2023-01-11T05:39:17.436Z,3.17
2023-01-11T05:43:18.438Z,2.77
2023-01-11T05:47:19.421Z,2.80
2023-01-11T05:51:20.373Z,2.80
2023-01-11T05:55:21.337Z,2.77
2023-01-11T05:59:22.271Z,2.40
2023-01-11T06:03:24.840Z,2.20
2023-01-11T06:07:25.856Z,2.47
2023-01-11T06:11:26.920Z,2.27
2023-01-11T06:15:27.899Z,2.37
2023-01-11T06:19:28.865Z,1.80
2023-01-11T06:23:31.928Z,1.63
2023-01-11T06:27:32.794Z,1.50
2023-01-11T06:31:33.750Z,1.40
2023-01-11T06:35:42.342Z,1.77
2023-01-11T06:39:43.381Z,2.00
2023-01-11T06:43:44.406Z,1.72
2023-01-11T06:47:45.353Z,1.47
2023-01-11T06:51:47.336Z,2.00
2023-01-11T06:55:52.922Z,2.10
2023-01-11T06:59:56.942Z,2.70
2023-01-11T07:03:57.935Z,3.10
2023-01-11T07:07:59.065Z,3.83
2023-01-11T07:12:00.141Z,3.93
2023-01-11T07:16:01.312Z,4.37
2023-01-11T07:20:03.135Z,5.77
2023-01-11T07:24:04.872Z,5.23
2023-01-11T07:28:07.681Z,6.00
2023-01-11T07:32:10.824Z,6.30
2023-01-11T07:36:13.097Z,5.43
2023-01-11T07:40:17.240Z,7.50
2023-01-11T07:44:18.434Z,7.10
2023-01-11T07:48:24.531Z,7.20
2023-01-11T07:52:27.835Z,8.83
2023-01-11T07:56:29.910Z,8.47
2023-01-11T08:00:31.632Z,7.40
2023-01-11T08:04:34.527Z,7.50
2023-01-11T08:08:36.634Z,6.97
2023-01-11T08:13:01.833Z,5.10
2023-01-11T08:17:05.020Z,4.57
2023-01-11T08:21:07.761Z,5.23
2023-01-11T08:25:11.290Z,5.67
2023-01-11T08:29:13.489Z,3.70
2023-01-11T08:33:15.926Z,5.23
2023-01-11T08:37:18.313Z,4.50
2023-01-11T08:41:21.417Z,5.10
2023-01-11T08:45:22.648Z,5.03
2023-01-11T08:49:24.038Z,4.03
2023-01-11T08:53:26.475Z,5.20
2023-01-11T08:57:28.357Z,5.10
2023-01-11T09:01:31.014Z,5.50
2023-01-11T09:05:34.419Z,3.93
2023-01-11T09:09:37.491Z,4.40
2023-01-11T09:13:39.304Z,3.20
2023-01-11T09:17:41.155Z,3.70
2023-01-11T09:21:44.719Z,3.03
2023-01-11T09:25:47.100Z,2.40
2023-01-11T09:29:48.110Z,1.93
2023-01-11T09:33:49.170Z,2.00
2023-01-11T09:37:51.852Z,1.70
2023-01-11T09:42:14.955Z,1.40
2023-01-11T09:46:18.127Z,0.83
2023-01-11T09:50:23.336Z,0.60
2023-01-11T09:54:26.634Z,0.63
2023-01-11T09:59:06.925Z,0.60
2023-01-11T10:03:24.474Z,0.90
2023-01-11T10:07:38.684Z,1.20
2023-01-11T10:18:29.104Z,0.70
2023-01-11T10:20:24.950Z,0.87
2023-01-11T10:24:34.748Z,0.47
2023-01-11T10:28:46.947Z,0.50
2023-01-11T10:33:07.850Z,0.60
2023-01-11T10:37:20.567Z,0.40
2023-01-11T10:41:36.419Z,0.60
2023-01-11T10:45:52.862Z,0.80
2023-01-11T10:50:18.811Z,0.90
2023-01-11T10:54:28.007Z,0.80
2023-01-11T10:58:39.067Z,0.60
2023-01-11T11:02:44.044Z,1.20
2023-01-11T11:06:54.831Z,1.23
2023-01-11T11:11:20.610Z,2.63
2023-01-11T11:15:25.567Z,0.80
2023-01-11T11:19:31.440Z,0.50
2023-01-11T11:23:34.315Z,0.90
2023-01-11T11:27:48.113Z,0.80
2023-01-11T11:31:50.270Z,1.10
2023-01-11T11:36:01.600Z,0.60
2023-01-11T11:40:03.976Z,0.87
2023-01-11T11:44:17.255Z,0.77
2023-01-11T11:48:18.475Z,0.50
2023-01-11T11:52:20.050Z,0.70
2023-01-11T11:56:30.202Z,0.60
2023-01-11T12:00:39.511Z,0.50
2023-01-11T12:04:46.676Z,0.50
2023-01-11T12:08:48.360Z,0.70
2023-01-11T12:12:52.965Z,0.50
2023-01-11T12:16:54.248Z,0.40
2023-01-11T12:20:55.395Z,0.40
2023-01-11T12:25:09.387Z,0.97
2023-01-11T12:29:20.473Z,0.60
2023-01-11T12:33:37.515Z,0.60
2023-01-11T12:37:45.275Z,0.87
2023-01-11T12:41:53.694Z,0.73
2023-01-11T12:46:15.222Z,0.80
2023-01-11T12:50:24.325Z,0.70
2023-01-11T12:54:44.772Z,0.93
2023-01-11T12:59:01.883Z,1.20
2023-01-11T13:07:31.413Z,1.20
2023-01-11T13:11:36.531Z,1.10
2023-01-11T13:15:48.311Z,2.90
2023-01-11T13:20:11.200Z,4.30
2023-01-11T13:24:16.084Z,1.90
2023-01-11T13:28:24.420Z,2.10
2023-01-11T13:32:27.738Z,2.13
2023-01-11T13:36:36.257Z,1.90
2023-01-11T13:40:41.272Z,1.83
2023-01-11T13:44:55.231Z,2.00
2023-01-11T13:49:12.065Z,2.17
2023-01-11T13:53:34.441Z,2.57
2023-01-11T13:57:57.815Z,2.30
2023-01-11T14:02:14.451Z,2.90
2023-01-11T14:06:36.266Z,2.57
2023-01-11T14:10:47.019Z,3.50
2023-01-11T14:15:06.812Z,3.17
2023-01-11T14:19:44.766Z,2.50
2023-01-11T14:23:51.998Z,4.30
2023-01-11T14:28:14.884Z,2.37
2023-01-11T14:32:49.823Z,2.80
2023-01-11T14:37:11.263Z,3.27
2023-01-11T14:41:34.174Z,6.57
2023-01-11T14:45:50.904Z,4.13
2023-01-11T14:50:04.493Z,5.47
2023-01-11T14:54:12.175Z,5.27
2023-01-11T14:58:27.801Z,5.10
2023-01-11T15:02:29.440Z,3.90
2023-01-11T15:06:31.017Z,3.10
2023-01-11T15:10:35.992Z,4.03
2023-01-11T15:14:37.682Z,3.20
2023-01-11T15:18:45.647Z,4.10
2023-01-11T15:22:59.824Z,4.40
2023-01-11T15:27:01.895Z,4.67
2023-01-11T15:31:04.415Z,4.13
2023-01-11T15:35:24.806Z,5.33
2023-01-11T15:39:41.807Z,4.33
2023-01-11T15:43:49.511Z,4.70
2023-01-11T15:48:11.401Z,3.80
2023-01-11T15:52:19.201Z,4.40
2023-01-11T15:56:26.839Z,4.30
2023-01-11T16:00:31.690Z,4.43
2023-01-11T16:04:45.194Z,3.80
2023-01-11T16:09:05.223Z,4.97
2023-01-11T16:13:26.561Z,5.27
2023-01-11T16:17:28.555Z,3.33
2023-01-11T16:21:36.107Z,3.77
2023-01-11T16:25:40.565Z,3.10
2023-01-11T16:29:45.391Z,3.13
2023-01-11T16:33:49.556Z,3.90
2023-01-11T16:37:56.877Z,3.73
2023-01-11T16:42:05.196Z,2.83
2023-01-11T16:46:10.693Z,3.65
2023-01-11T16:50:24.515Z,3.00
2023-01-11T16:54:31.674Z,3.73
2023-01-11T16:58:38.523Z,3.60
2023-01-11T17:02:41.388Z,3.90
2023-01-11T17:06:42.530Z,5.10
2023-01-11T17:10:43.983Z,4.87
2023-01-11T17:15:10.962Z,3.73
2023-01-11T17:19:15.751Z,3.30
2023-01-11T17:23:17.003Z,3.00
2023-01-11T17:27:32.622Z,4.00
2023-01-11T17:31:36.282Z,3.30
2023-01-11T17:35:40.799Z,4.03
2023-01-11T17:39:46.901Z,3.53
2023-01-11T17:44:06.857Z,4.17
2023-01-11T17:48:12.067Z,3.30
2023-01-11T17:52:24.973Z,4.10
2023-01-11T17:56:38.005Z,4.75
2023-01-11T18:00:41.277Z,3.63
2023-01-11T18:04:42.474Z,3.60
2023-01-11T18:08:55.681Z,3.13
2023-01-11T18:12:59.248Z,3.85
2023-01-11T18:17:03.893Z,3.58
2023-01-11T18:21:27.161Z,2.80
2023-01-11T18:25:34.278Z,2.73
2023-01-11T18:29:39.031Z,3.30
2023-01-11T18:33:41.210Z,4.50
2023-01-11T18:37:42.422Z,5.95
2023-01-11T18:42:01.973Z,3.53
2023-01-11T18:46:03.788Z,3.40
2023-01-11T18:50:06.129Z,5.10
2023-01-11T18:54:12.079Z,3.43
2023-01-11T18:58:14.116Z,3.10
2023-01-11T19:02:25.182Z,3.27
2023-01-11T19:06:28.075Z,3.60
2023-01-11T19:10:29.481Z,3.83
2023-01-11T19:14:30.747Z,5.12
2023-01-11T19:18:35.161Z,4.23
2023-01-11T19:22:37.735Z,3.23
2023-01-11T19:26:39.010Z,2.63
2023-01-11T19:30:40.814Z,3.10
2023-01-11T19:34:42.232Z,4.37
2023-01-11T19:38:44.334Z,3.47
2023-01-11T19:42:47.129Z,2.87
2023-01-11T19:46:50.467Z,3.20
2023-01-11T19:50:51.455Z,2.50
2023-01-11T19:54:54.461Z,4.53
2023-01-11T19:58:55.609Z,4.87
2023-01-11T20:02:56.768Z,2.47
2023-01-11T20:06:57.952Z,3.33
2023-01-11T20:11:08.121Z,4.80
2023-01-11T20:15:10.239Z,3.70
2023-01-11T20:19:11.667Z,2.93
2023-01-11T20:23:12.905Z,4.03
2023-01-11T20:27:14.140Z,4.25
2023-01-11T20:31:16.508Z,3.83
2023-01-11T20:35:17.623Z,2.93
2023-01-11T20:39:18.887Z,3.13
2023-01-11T20:43:19.910Z,7.63
2023-01-11T20:47:20.901Z,4.37
2023-01-11T20:51:21.992Z,3.83
2023-01-11T20:55:23.107Z,4.03
2023-01-11T20:59:24.170Z,4.43
2023-01-11T21:03:25.186Z,4.97
2023-01-11T21:07:26.525Z,5.13
2023-01-11T21:11:28.959Z,4.53
2023-01-11T21:15:30.175Z,6.83
2023-01-11T21:19:31.448Z,6.93
2023-01-11T21:23:32.508Z,7.10
2023-01-11T21:27:33.545Z,6.03
2023-01-11T21:31:37.304Z,6.00
2023-01-11T21:35:38.449Z,5.77
2023-01-11T21:39:39.378Z,9.18
2023-01-11T21:43:42.153Z,6.00
2023-01-11T21:47:43.903Z,6.80
2023-01-11T21:51:45.057Z,7.97
2023-01-11T21:55:46.629Z,8.57
2023-01-11T21:59:47.573Z,9.07
2023-01-11T22:03:49.102Z,6.53
2023-01-11T22:07:50.208Z,7.77
2023-01-11T22:11:51.198Z,5.80
2023-01-11T22:15:52.514Z,5.60
2023-01-11T22:19:53.642Z,4.73
2023-01-11T22:23:56.826Z,3.40
2023-01-11T22:27:57.802Z,3.23
2023-01-11T22:32:00.716Z,5.47
2023-01-11T22:36:03.779Z,3.03
2023-01-11T22:40:05.754Z,4.10
2023-01-11T22:44:09.507Z,4.53
2023-01-11T22:48:10.533Z,2.90
2023-01-11T22:52:11.647Z,4.80
2023-01-11T22:56:17.176Z,4.97
2023-01-11T23:00:18.390Z,4.47
2023-01-11T23:04:19.327Z,4.70
2023-01-11T23:08:20.340Z,5.80
2023-01-11T23:12:40.132Z,4.73
2023-01-11T23:16:41.944Z,4.70
2023-01-11T23:20:43.081Z,3.40
2023-01-11T23:24:44.490Z,4.10
2023-01-11T23:28:46.469Z,4.67
2023-01-11T23:32:47.443Z,4.33
2023-01-11T23:36:48.527Z,4.77
2023-01-11T23:41:07.799Z,3.70
2023-01-11T23:45:09.444Z,3.40
2023-01-11T23:49:11.315Z,3.43
2023-01-11T23:53:12.429Z,3.50
2023-01-11T23:57:14.495Z,3.53
